Time;durP1;ratioP1;P1;durP2;ratioP2;P2;SDS_P1;SDS_P2;PMS_P1;PMS_P2;Temp;Humidity;BMP_temperature;BMP_pressure;BME280_temperature;BME280_humidity;BME280_pressure;Samples;Min_cycle;Max_cycle;Signal;HPM_P1;HPM_P2
2023/06/04 00:02:27;;;;;;;5.45;4.22;;;17.50;47.40;;;19.43;38.03;97617.19;5061741;28;20048;-47
2023/06/04 00:04:55;;;;;;;5.82;4.38;;;17.50;47.10;;;19.38;38.05;97615.13;5060032;28;20044;-47
2023/06/04 00:07:22;;;;;;;6.60;4.50;;;17.50;47.10;;;19.36;38.12;97611.81;5061947;28;20041;-48
2023/06/04 00:09:50;;;;;;;5.22;4.22;;;17.50;47.20;;;19.33;38.16;97616.81;5063438;28;20389;-47
2023/06/04 00:12:18;;;;;;;5.65;4.47;;;17.40;47.20;;;19.28;38.23;97621.00;5063103;28;20071;-46
2023/06/04 00:14:45;;;;;;;5.97;4.28;;;17.40;47.40;;;19.23;38.41;97611.88;5059882;28;20052;-46
2023/06/04 00:17:13;;;;;;;6.32;4.22;;;17.30;47.90;;;19.18;38.42;97612.56;5059926;28;20041;-47
2023/06/04 00:19:40;;;;;;;5.80;4.38;;;17.20;47.80;;;19.15;38.50;97625.66;5037870;28;20056;-46
2023/06/04 00:22:08;;;;;;;6.82;4.57;;;17.20;48.10;;;19.08;38.73;97621.13;5063920;28;20044;-49
2023/06/04 00:24:38;;;;;;;7.63;5.18;;;17.20;48.40;;;19.06;38.84;97615.13;5060417;28;20041;-47
2023/06/04 00:27:10;;;;;;;7.88;4.20;;;17.20;48.20;;;19.01;38.79;97614.09;5059407;28;20052;-48
2023/06/04 00:29:38;;;;;;;7.63;4.40;;;17.10;48.70;;;18.95;38.89;97613.09;5063333;28;20041;-48
2023/06/04 00:32:06;;;;;;;8.52;4.40;;;17.00;48.50;;;18.92;38.83;97615.38;5061692;28;20044;-50
2023/06/04 00:34:34;;;;;;;6.65;4.68;;;17.00;48.30;;;18.89;38.86;97608.56;5058796;28;20068;-48
2023/06/04 00:37:02;;;;;;;5.90;4.57;;;17.00;48.40;;;18.85;39.02;97610.03;5059517;28;20041;-47
2023/06/04 00:39:30;;;;;;;6.20;3.92;;;17.00;48.50;;;18.83;39.03;97614.81;5062058;28;20044;-47
2023/06/04 00:41:57;;;;;;;8.77;5.15;;;16.90;48.60;;;18.79;38.99;97613.56;5063324;28;20055;-47
2023/06/04 00:44:25;;;;;;;7.13;4.93;;;16.80;48.60;;;18.73;38.94;97620.66;5060167;28;20056;-48
2023/06/04 00:46:54;;;;;;;6.05;4.53;;;16.80;48.60;;;18.70;39.01;97624.56;5058822;28;20151;-48
2023/06/04 00:49:22;;;;;;;5.63;4.38;;;16.80;48.70;;;18.63;39.34;97626.50;5058852;28;20052;-47
2023/06/04 00:51:50;;;;;;;5.80;4.53;;;16.70;49.10;;;18.60;39.30;97626.09;5061510;28;20036;-47
2023/06/04 00:54:19;;;;;;;6.38;4.72;;;16.70;48.90;;;18.57;39.37;97629.19;5061102;28;20053;-47
2023/06/04 00:56:48;;;;;;;6.47;4.30;;;16.60;49.00;;;18.53;39.28;97628.78;5058828;28;20049;-47
2023/06/04 00:59:16;;;;;;;9.13;4.20;;;16.60;49.20;;;18.49;39.41;97627.56;5057932;28;20420;-45
2023/06/04 01:02:14;;;;;;;6.88;4.68;;;16.50;49.50;;;18.41;39.52;97635.88;5062080;28;20433;-46
2023/06/04 01:05:29;;;;;;;4.50;4.05;;;16.50;50.40;;;18.37;39.54;97635.47;5061828;28;20045;-48
2023/06/04 01:07:59;;;;;;;8.75;4.35;;;16.40;50.00;;;18.36;39.41;97636.53;5052198;28;20057;-55
2023/06/04 01:10:27;;;;;;;10.65;4.22;;;16.40;49.30;;;18.32;39.50;97638.00;5060779;28;20048;-47
2023/06/04 01:12:54;;;;;;;6.00;3.85;;;16.40;49.20;;;18.29;39.58;97638.41;5061500;28;20546;-46
2023/06/04 01:15:22;;;;;;;7.82;4.75;;;16.40;49.30;;;18.25;39.78;97632.59;5061339;28;20060;-46
2023/06/04 01:18:02;;;;;;;5.43;3.83;;;16.30;49.60;;;18.21;39.80;97634.06;5059193;28;20040;-48
2023/06/04 01:20:43;;;;;;;6.32;4.20;;;16.30;49.80;;;18.21;40.27;97631.38;5061082;28;20055;-46
2023/06/04 01:23:33;;;;;;;5.35;3.88;;;16.30;49.40;;;18.19;39.60;97633.44;5045229;28;20424;-46
2023/06/04 01:26:03;;;;;;;4.70;4.03;;;16.30;50.20;;;18.15;39.83;97632.22;5053093;28;20040;-47
2023/06/04 01:28:34;;;;;;;6.50;4.53;;;16.20;49.60;;;18.10;40.00;97627.44;5060086;28;20049;-46
2023/06/04 01:31:07;;;;;;;5.22;4.07;;;16.20;50.00;;;18.08;39.84;97631.38;5061584;28;20051;-45
2023/06/04 01:33:35;;;;;;;5.88;3.95;;;16.20;49.60;;;18.02;39.82;97626.84;5057880;28;20078;-46
2023/06/04 01:36:03;;;;;;;7.15;4.07;;;16.10;50.60;;;17.97;39.83;97626.63;5057157;28;20053;-48
2023/06/04 01:38:31;;;;;;;4.82;3.65;;;16.00;50.10;;;17.90;40.15;97629.34;5058005;28;20064;-46
2023/06/04 01:41:01;;;;;;;4.10;3.47;;;16.00;50.10;;;17.84;40.35;97631.00;5061034;28;20048;-49
2023/06/04 01:43:30;;;;;;;6.30;4.40;;;15.90;50.60;;;17.79;40.29;97629.94;5060989;28;20419;-48
2023/06/04 01:45:58;;;;;;;5.22;3.35;;;15.80;50.70;;;17.76;40.37;97628.50;5058589;28;20412;-46
2023/06/04 01:48:25;;;;;;;7.22;4.22;;;15.80;50.60;;;17.73;40.43;97633.47;5059824;28;20068;-47
2023/06/04 01:50:53;;;;;;;4.20;3.63;;;15.80;50.60;;;17.69;40.34;97630.34;5062353;28;20060;-45
2023/06/04 01:53:21;;;;;;;6.18;4.40;;;15.80;50.70;;;17.65;40.30;97638.00;5061458;28;20451;-45
2023/06/04 01:55:50;;;;;;;5.20;3.50;;;15.70;51.40;;;17.63;40.52;97633.88;5056861;28;20048;-45
2023/06/04 01:58:22;;;;;;;5.10;3.30;;;15.70;50.80;;;17.60;40.60;97637.81;5053799;28;20049;-46
2023/06/04 02:00:50;;;;;;;4.85;2.80;;;15.70;50.70;;;17.58;40.57;97639.03;5051601;28;20428;-50
2023/06/04 02:03:18;;;;;;;6.13;3.53;;;15.60;50.50;;;17.51;40.44;97639.03;5058088;28;20140;-46
2023/06/04 02:05:46;;;;;;;4.22;3.13;;;15.60;50.50;;;17.48;40.45;97636.75;5048741;28;20064;-47
2023/06/04 02:08:18;;;;;;;4.47;3.30;;;15.70;50.40;;;17.47;40.38;97640.50;5058022;28;20045;-46
2023/06/04 02:10:47;;;;;;;4.65;3.42;;;15.60;50.70;;;17.43;40.49;97634.69;5051026;28;20037;-45
2023/06/04 02:13:16;;;;;;;5.32;3.55;;;15.60;50.30;;;17.42;40.12;97633.00;5057713;28;20052;-48
2023/06/04 02:15:43;;;;;;;4.43;3.33;;;15.50;50.00;;;17.41;40.28;97633.22;5059796;28;20053;-45
2023/06/04 02:18:23;;;;;;;4.07;2.75;;;15.60;50.00;;;17.42;40.29;97640.25;5062064;28;20044;-49
2023/06/04 02:20:50;;;;;;;4.03;3.08;;;15.60;50.00;;;17.41;40.17;97636.75;5051428;28;20045;-46
2023/06/04 02:23:20;;;;;;;7.53;3.67;;;15.60;49.60;;;17.42;39.88;97635.72;5056562;28;20045;-46
2023/06/04 02:25:49;;;;;;;4.72;3.10;;;15.60;49.50;;;17.42;39.84;97641.09;5050668;28;20424;-45
2023/06/04 02:28:17;;;;;;;4.10;2.97;;;15.60;49.30;;;17.42;40.08;97641.09;5058281;28;20060;-46
2023/06/04 02:30:46;;;;;;;4.65;3.10;;;15.60;49.50;;;17.40;39.97;97640.47;5050375;28;20496;-46
2023/06/04 02:33:14;;;;;;;4.07;2.80;;;15.50;49.30;;;17.40;39.78;97643.16;5058389;28;20048;-47
2023/06/04 02:35:42;;;;;;;4.05;3.35;;;15.50;49.30;;;17.37;39.75;97642.72;5062842;28;20416;-47
2023/06/04 02:38:10;;;;;;;4.43;3.42;;;15.50;49.00;;;17.36;39.81;97643.78;5047776;28;20067;-46
2023/06/04 02:40:38;;;;;;;3.65;2.90;;;15.50;49.00;;;17.29;39.91;97641.91;5063069;28;20051;-47
2023/06/04 02:43:06;;;;;;;5.75;3.10;;;15.40;49.20;;;17.27;39.69;97643.97;5060711;28;20242;-49
2023/06/04 02:45:34;;;;;;;3.72;2.83;;;15.40;49.20;;;17.23;39.61;97644.56;5063453;28;20060;-45
2023/06/04 02:48:01;;;;;;;4.68;2.65;;;15.30;49.10;;;17.21;39.57;97650.16;5064134;28;20044;-46
2023/06/04 02:50:29;;;;;;;3.78;2.78;;;15.30;49.30;;;17.17;39.58;97643.53;5062298;28;20048;-46
2023/06/04 02:52:57;;;;;;;5.28;2.80;;;15.30;49.40;;;17.15;39.87;97642.06;5060560;28;20424;-45
2023/06/04 02:55:24;;;;;;;8.10;2.78;;;15.20;49.30;;;17.13;39.55;97645.78;5060493;28;20041;-47
2023/06/04 02:57:52;;;;;;;4.75;2.92;;;15.20;49.20;;;17.13;39.54;97637.72;5065241;28;20047;-46
2023/06/04 03:00:20;;;;;;;4.90;2.92;;;15.20;48.90;;;17.15;39.67;97640.22;5062989;28;20085;-45
2023/06/04 03:02:48;;;;;;;6.68;2.90;;;15.20;48.90;;;17.13;39.52;97643.09;5052692;28;20520;-46
2023/06/04 03:05:17;;;;;;;5.30;2.67;;;15.30;48.80;;;17.11;39.53;97645.16;5043676;28;20045;-48
2023/06/04 03:07:46;;;;;;;5.20;2.72;;;15.20;48.70;;;17.09;39.50;97644.53;5047359;28;20041;-45
2023/06/04 03:10:15;;;;;;;4.47;3.25;;;15.20;48.50;;;17.09;39.56;97649.09;5063862;28;20514;-44
2023/06/04 03:12:44;;;;;;;3.70;3.00;;;15.20;48.60;;;17.05;39.40;97653.22;5061840;28;20048;-46
2023/06/04 03:15:12;;;;;;;6.68;2.60;;;15.10;48.80;;;17.01;39.42;97650.09;5059576;28;20302;-47
2023/06/04 03:17:41;;;;;;;4.63;2.80;;;15.00;48.70;;;16.99;39.33;97649.47;5063951;28;20048;-46
2023/06/04 03:20:10;;;;;;;4.00;2.42;;;15.00;48.90;;;16.97;39.55;97656.91;5064954;28;20044;-46
2023/06/04 03:22:37;;;;;;;3.25;2.95;;;15.00;49.00;;;16.97;39.35;97653.41;5060968;28;20536;-45
2023/06/04 03:25:06;;;;;;;6.13;2.53;;;15.00;48.70;;;16.95;39.41;97663.53;5039596;28;20433;-45
2023/06/04 03:27:34;;;;;;;2.83;2.45;;;15.00;48.80;;;16.93;39.25;97655.66;5059429;28;20053;-44
2023/06/04 03:30:03;;;;;;;4.53;2.72;;;15.00;48.90;;;16.90;39.54;97664.13;5063506;28;20052;-46
2023/06/04 03:32:40;;;;;;;4.63;3.13;;;15.00;49.00;;;16.87;39.44;97660.00;5060851;28;20397;-46
2023/06/04 03:35:08;;;;;;;4.45;2.50;;;14.90;48.90;;;16.81;39.62;97658.06;5059459;28;20045;-44
2023/06/04 03:37:35;;;;;;;4.10;2.55;;;14.90;49.00;;;16.79;39.42;97656.59;5067681;28;20045;-46
2023/06/04 03:40:06;;;;;;;5.75;2.50;;;14.80;48.80;;;16.78;39.43;97661.16;5059696;28;20037;-46
2023/06/04 03:42:37;;;;;;;3.25;2.88;;;14.90;48.70;;;16.77;39.53;97664.88;5061133;28;20040;-45
2023/06/04 03:45:05;;;;;;;3.47;2.53;;;14.90;48.60;;;16.76;39.54;97662.41;5061630;28;20483;-46
2023/06/04 03:47:34;;;;;;;4.63;2.60;;;14.90;48.30;;;16.75;39.29;97666.94;5061340;28;20060;-48
2023/06/04 03:50:05;;;;;;;2.95;2.35;;;14.90;48.10;;;16.73;39.36;97671.69;5059828;28;20051;-48
2023/06/04 03:52:33;;;;;;;3.75;2.30;;;14.80;48.30;;;16.70;39.40;97656.78;5067540;28;20044;-47
2023/06/04 03:55:01;;;;;;;4.68;2.33;;;14.80;48.20;;;16.68;39.47;97664.22;5058875;28;20037;-45
2023/06/04 03:57:30;;;;;;;5.03;2.55;;;14.80;48.40;;;16.68;39.17;97663.38;5059953;28;20048;-47
2023/06/04 03:59:58;;;;;;;6.13;2.53;;;14.80;48.40;;;16.67;39.27;97667.09;5046616;28;20518;-46
2023/06/04 04:02:26;;;;;;;5.57;2.90;;;14.80;48.00;;;16.64;39.25;97670.19;5062506;28;20044;-46
2023/06/04 04:04:54;;;;;;;3.60;2.20;;;14.80;48.00;;;16.63;39.35;97668.53;5060117;28;20420;-48
2023/06/04 04:07:24;;;;;;;3.67;2.30;;;14.80;48.10;;;16.63;39.56;97674.72;5059160;28;20052;-46
2023/06/04 04:09:52;;;;;;;4.25;2.53;;;14.80;48.30;;;16.64;39.09;97676.41;5064431;28;20045;-46
2023/06/04 04:12:20;;;;;;;4.78;2.10;;;14.80;48.10;;;16.63;39.06;97669.34;5054883;28;20115;-48
2023/06/04 04:14:50;;;;;;;4.72;2.60;;;14.80;48.10;;;16.65;39.31;97677.22;5059053;28;20504;-45
2023/06/04 04:17:17;;;;;;;5.85;2.10;;;14.80;47.90;;;16.66;38.93;97679.72;5059034;28;20041;-45
2023/06/04 04:19:46;;;;;;;2.67;1.95;;;14.80;47.70;;;16.67;39.01;97677.84;5061897;28;20052;-48
2023/06/04 04:22:17;;;;;;;3.63;2.90;;;14.80;47.70;;;16.66;39.20;97687.78;5062827;28;20047;-46
2023/06/04 04:24:45;;;;;;;3.70;2.70;;;14.80;47.90;;;16.64;38.86;97681.78;5059552;28;20056;-45
2023/06/04 04:27:12;;;;;;;3.90;2.83;;;14.70;47.80;;;16.63;38.92;97687.34;5042183;28;20064;-47
2023/06/04 04:29:43;;;;;;;3.55;2.67;;;14.70;48.00;;;16.63;38.87;97681.97;5062259;28;20072;-46
2023/06/04 04:32:11;;;;;;;4.50;3.08;;;14.70;47.90;;;16.61;39.01;97692.91;5062009;28;20047;-46
2023/06/04 04:34:53;;;;;;;4.63;2.72;;;14.70;47.90;;;16.62;39.09;97696.44;5059683;28;20044;-45
2023/06/04 04:37:24;;;;;;;3.05;2.40;;;14.70;47.90;;;16.59;38.88;97700.34;5058982;28;20041;-45
2023/06/04 04:39:54;;;;;;;6.38;2.25;;;14.60;48.00;;;16.59;39.02;97696.81;5050770;28;20044;-46
2023/06/04 04:42:24;;;;;;;2.58;1.92;;;14.60;48.00;;;16.58;38.89;97698.69;5058530;28;20049;-45
2023/06/04 04:44:52;;;;;;;9.68;7.00;;;14.60;47.70;;;16.56;38.85;97698.06;5058248;28;20045;-47
2023/06/04 04:47:23;;;;;;;7.47;6.47;;;14.60;47.90;;;16.53;38.73;97695.75;5063836;28;20049;-45
2023/06/04 04:49:51;;;;;;;9.32;5.85;;;14.60;47.90;;;16.53;38.91;97701.13;5061449;28;20050;-44
2023/06/04 04:52:19;;;;;;;15.40;8.15;;;14.70;47.80;;;16.51;39.21;97698.63;5061263;28;20045;-44
2023/06/04 04:54:47;;;;;;;9.93;6.43;;;14.60;47.90;;;16.54;38.93;97702.81;5057218;28;20045;-45
2023/06/04 04:57:15;;;;;;;4.97;3.30;;;14.70;48.00;;;16.60;39.21;97695.81;5058486;28;20048;-46
2023/06/04 04:59:46;;;;;;;5.90;2.53;;;14.80;47.90;;;16.66;39.13;97705.78;5056962;28;20523;-45
2023/06/04 05:02:15;;;;;;;4.28;2.22;;;14.80;47.70;;;16.72;38.96;97699.59;5057303;28;20524;-45
2023/06/04 05:04:43;;;;;;;3.47;2.38;;;14.90;47.40;;;16.82;39.02;97697.38;5057634;28;20045;-46
2023/06/04 05:07:12;;;;;;;3.28;1.90;;;15.10;47.30;;;16.90;38.81;97702.63;5056573;28;20440;-44
2023/06/04 05:09:40;;;;;;;3.63;1.92;;;15.20;47.30;;;17.00;39.09;97696.88;5058009;28;20049;-47
2023/06/04 05:12:08;;;;;;;4.18;2.15;;;15.30;47.10;;;17.05;38.67;97705.16;5056886;28;20041;-53
2023/06/04 05:14:37;;;;;;;3.03;2.40;;;15.40;46.60;;;17.11;38.80;97706.19;5057492;28;20105;-46
2023/06/04 05:17:06;;;;;;;6.05;3.17;;;15.40;46.60;;;17.17;38.63;97710.78;5060053;28;20048;-49
2023/06/04 05:19:35;;;;;;;3.63;2.22;;;15.50;46.80;;;17.25;38.62;97715.16;5059109;28;20045;-47
2023/06/04 05:22:03;;;;;;;2.63;1.88;;;15.50;46.70;;;17.28;38.49;97718.25;5057089;28;20041;-46
2023/06/04 05:24:32;;;;;;;3.13;2.13;;;15.50;46.70;;;17.31;38.37;97719.72;5056378;28;20045;-47
2023/06/04 05:27:04;;;;;;;5.38;2.30;;;15.60;46.30;;;17.36;38.49;97724.50;5060119;28;20059;-49
2023/06/04 05:29:32;;;;;;;2.90;1.60;;;15.60;46.50;;;17.39;38.38;97726.78;5060879;28;20049;-46
2023/06/04 05:31:59;;;;;;;5.05;2.38;;;15.70;46.40;;;17.43;38.42;97726.19;5057629;28;20064;-46
2023/06/04 05:34:27;;;;;;;3.40;1.95;;;15.80;46.30;;;17.47;38.60;97734.69;5057420;28;20052;-46
2023/06/04 05:36:57;;;;;;;5.28;1.90;;;15.90;46.30;;;17.49;38.03;97733.44;5059999;28;20044;-46
2023/06/04 05:39:25;;;;;;;5.00;2.15;;;15.80;45.80;;;17.50;38.12;97735.09;5060721;28;20048;-46
2023/06/04 05:42:02;;;;;;;4.45;2.30;;;15.80;45.80;;;17.56;38.20;97740.69;5057801;28;20420;-44
2023/06/04 05:44:29;;;;;;;4.57;2.28;;;15.80;46.00;;;17.60;38.13;97740.09;5041260;28;20044;-48
2023/06/04 05:46:57;;;;;;;2.30;1.90;;;15.90;45.90;;;17.66;38.35;97743.81;5060500;28;20510;-46
2023/06/04 05:49:26;;;;;;;5.38;2.00;;;15.90;46.10;;;17.69;38.24;97735.34;5060823;28;20049;-47
2023/06/04 05:51:56;;;;;;;3.70;2.20;;;16.00;46.00;;;17.71;38.32;97733.28;5057513;28;20051;-46
2023/06/04 05:54:24;;;;;;;3.88;2.00;;;16.10;45.90;;;17.70;38.41;97731.63;5056955;28;20049;-45
2023/06/04 05:56:51;;;;;;;3.30;2.05;;;16.10;46.00;;;17.76;38.46;97735.34;5058907;28;20484;-47
2023/06/04 05:59:20;;;;;;;5.18;2.00;;;16.20;45.90;;;17.75;38.11;97739.91;5062269;28;20363;-45
2023/06/04 06:01:48;;;;;;;2.58;1.90;;;16.30;45.60;;;17.75;38.11;97739.91;5058128;28;20068;-45
2023/06/04 06:04:16;;;;;;;3.85;2.22;;;16.30;45.60;;;17.80;37.96;97744.69;5058696;28;20108;-49
2023/06/04 06:06:48;;;;;;;3.45;2.38;;;16.40;45.20;;;17.80;38.01;97744.69;5041785;28;20056;-48
2023/06/04 06:09:16;;;;;;;3.85;2.08;;;16.40;45.10;;;17.85;37.93;97743.03;5065286;28;20048;-46
2023/06/04 06:11:44;;;;;;;4.15;2.25;;;16.30;45.10;;;17.92;37.92;97745.78;5063280;28;20056;-46
2023/06/04 06:14:11;;;;;;;4.30;2.10;;;16.40;44.90;;;17.96;37.87;97751.56;5061423;28;20052;-46
2023/06/04 06:16:40;;;;;;;3.25;2.90;;;16.40;45.20;;;18.00;37.97;97739.34;5058338;28;20053;-45
2023/06/04 06:19:07;;;;;;;5.65;2.22;;;16.40;45.20;;;18.03;37.87;97745.16;5064528;28;20073;-45
2023/06/04 06:21:36;;;;;;;5.25;2.30;;;16.40;45.50;;;18.07;37.99;97748.28;5066147;28;20032;-46
2023/06/04 06:24:03;;;;;;;3.75;2.60;;;16.40;45.70;;;18.11;37.86;97746.81;5052512;28;20060;-45
2023/06/04 06:26:33;;;;;;;4.40;2.22;;;16.40;45.40;;;18.14;37.76;97754.47;5057829;28;20159;-45
2023/06/04 06:29:03;;;;;;;4.85;2.42;;;16.50;45.20;;;18.18;37.93;97750.31;5050764;28;20048;-50
2023/06/04 06:31:32;;;;;;;6.93;2.60;;;16.70;45.30;;;18.21;37.80;97747.22;5056472;28;20056;-46
2023/06/04 06:34:00;;;;;;;4.35;2.25;;;16.60;45.00;;;18.25;37.87;97756.56;5062414;28;20052;-45
2023/06/04 06:36:28;;;;;;;3.75;2.33;;;16.70;45.40;;;18.30;37.71;97755.94;5064221;28;20041;-45
2023/06/04 06:38:56;;;;;;;6.15;2.40;;;16.80;45.00;;;18.29;37.74;97759.66;5060878;28;20040;-48
2023/06/04 06:41:23;;;;;;;3.20;2.15;;;16.90;44.80;;;18.32;37.61;97758.41;5061393;28;20044;-47
2023/06/04 06:43:51;;;;;;;5.70;2.50;;;16.90;44.50;;;18.36;37.07;97762.34;5043652;28;20420;-48
2023/06/04 06:46:18;;;;;;;3.42;2.25;;;16.90;43.60;;;18.40;36.93;97760.91;5064163;28;20052;-48
2023/06/04 06:48:48;;;;;;;5.40;2.78;;;16.90;43.70;;;18.42;37.07;97764.22;5063252;28;20059;-49
2023/06/04 06:51:15;;;;;;;3.00;2.10;;;17.00;43.50;;;18.46;37.06;97773.56;5059404;28;20048;-47
2023/06/04 06:53:43;;;;;;;4.35;2.35;;;17.10;43.60;;;18.52;36.89;97772.72;5061418;28;20041;-49
2023/06/04 06:56:11;;;;;;;5.28;2.47;;;17.20;43.30;;;18.55;36.80;97777.66;5063247;28;20051;-47
2023/06/04 06:58:38;;;;;;;3.33;2.63;;;17.20;43.00;;;18.59;36.97;97773.53;5064415;28;20119;-46
2023/06/04 07:01:06;;;;;;;3.95;2.33;;;17.20;43.30;;;18.64;36.87;97770.22;5052795;28;20049;-47
2023/06/04 07:03:34;;;;;;;3.30;2.05;;;17.30;43.30;;;18.67;36.75;97764.41;5039536;28;20364;-45
2023/06/04 07:06:02;;;;;;;3.00;2.00;;;17.30;43.20;;;18.67;36.65;97767.94;5062762;28;20051;-48
2023/06/04 07:08:30;;;;;;;3.58;2.25;;;17.40;42.90;;;18.62;36.76;97770.41;5063318;28;20055;-47
2023/06/04 07:10:58;;;;;;;3.15;1.90;;;17.40;42.70;;;18.62;37.01;97773.09;5061730;28;20067;-46
2023/06/04 07:13:27;;;;;;;3.10;1.95;;;17.40;42.90;;;18.67;36.77;97781.41;5059313;28;20091;-46
2023/06/04 07:15:55;;;;;;;3.75;2.40;;;17.50;43.40;;;18.75;36.70;97776.84;5061815;28;20045;-50
2023/06/04 07:18:22;;;;;;;3.80;2.30;;;17.50;42.70;;;18.80;36.71;97775.19;5063814;28;20427;-47
2023/06/04 07:20:52;;;;;;;3.30;2.25;;;17.50;42.70;;;18.85;36.65;97783.47;5059558;28;20056;-45
2023/06/04 07:23:22;;;;;;;3.22;2.00;;;17.60;42.60;;;18.93;36.55;97782.41;5060757;28;20037;-45
2023/06/04 07:25:50;;;;;;;3.25;2.20;;;17.70;42.50;;;19.01;36.54;97784.06;5060999;28;20052;-46
2023/06/04 07:28:18;;;;;;;4.40;2.65;;;17.80;42.70;;;19.06;36.37;97777.00;5063943;28;20045;-46
2023/06/04 07:30:46;;;;;;;2.63;2.33;;;17.80;42.30;;;19.14;36.20;97777.81;5062751;28;20048;-46
2023/06/04 07:33:13;;;;;;;4.68;2.40;;;17.90;42.20;;;19.19;36.19;97773.44;5059351;28;20048;-46
2023/06/04 07:35:41;;;;;;;2.97;2.03;;;18.00;42.10;;;19.26;36.01;97778.78;5059542;28;20048;-45
2023/06/04 07:38:09;;;;;;;2.95;2.17;;;18.10;42.10;;;19.33;36.22;97774.22;5059019;28;20041;-46
2023/06/04 07:40:36;;;;;;;4.13;2.40;;;18.10;42.00;;;19.39;36.31;97775.22;5061292;28;20037;-46
2023/06/04 07:43:04;;;;;;;3.47;2.83;;;18.20;42.10;;;19.42;36.29;97775.59;5063887;28;20048;-46
2023/06/04 07:45:31;;;;;;;4.22;2.15;;;18.30;41.90;;;19.45;36.12;97774.34;5062865;28;20048;-45
2023/06/04 07:48:02;;;;;;;8.32;3.13;;;18.30;41.80;;;19.53;36.26;97768.69;5062094;28;20162;-46
2023/06/04 07:50:30;;;;;;;4.68;2.30;;;18.40;42.00;;;19.59;36.21;97772.41;5059912;28;20048;-46
2023/06/04 07:53:02;;;;;;;4.35;2.53;;;18.40;41.80;;;19.67;36.01;97772.97;5063619;28;20057;-47
2023/06/04 07:55:31;;;;;;;4.57;2.30;;;18.50;41.90;;;19.75;36.03;97769.22;5064164;28;20492;-50
2023/06/04 07:57:59;;;;;;;4.57;2.90;;;18.60;41.70;;;19.79;35.88;97762.38;5062307;28;20049;-45
2023/06/04 08:00:26;;;;;;;5.95;2.50;;;18.60;41.70;;;19.81;35.87;97768.38;5060008;28;20041;-47
2023/06/04 08:02:54;;;;;;;4.05;2.97;;;18.70;41.70;;;19.85;35.95;97766.91;5062010;28;20412;-46
2023/06/04 08:05:23;;;;;;;4.45;2.80;;;18.70;41.60;;;19.88;35.90;97765.63;5063860;28;20048;-45
2023/06/04 08:07:50;;;;;;;5.00;2.67;;;18.80;41.60;;;19.91;36.18;97769.75;5063006;28;20041;-45
2023/06/04 08:10:18;;;;;;;4.13;2.70;;;18.80;41.80;;;19.92;35.99;97757.91;5060873;28;20135;-45
2023/06/04 08:12:45;;;;;;;3.85;2.65;;;18.80;41.80;;;19.96;36.35;97754.56;5060645;28;20521;-46
2023/06/04 08:15:13;;;;;;;2.80;2.15;;;18.80;42.20;;;20.01;36.42;97754.72;5059871;28;20041;-45
2023/06/04 08:17:40;;;;;;;5.95;3.25;;;18.80;42.50;;;20.08;36.42;97756.56;5060526;28;20040;-46
2023/06/04 08:20:08;;;;;;;5.05;2.80;;;18.90;42.60;;;20.11;36.62;97751.53;5060474;28;20041;-47
2023/06/04 08:22:36;;;;;;;3.78;2.88;;;18.90;42.70;;;20.17;36.38;97764.16;5060361;28;20037;-46
2023/06/04 08:25:05;;;;;;;5.65;2.63;;;19.00;42.60;;;20.25;36.29;97763.06;5062165;28;20049;-46
2023/06/04 08:27:32;;;;;;;4.93;2.50;;;19.10;42.50;;;20.30;36.22;97752.44;5062320;28;20053;-49
2023/06/04 08:30:00;;;;;;;4.93;2.70;;;19.10;41.90;;;20.35;35.66;97759.88;5061831;28;20102;-48
2023/06/04 08:32:28;;;;;;;4.80;2.47;;;19.20;41.70;;;20.39;35.67;97767.31;5060035;28;20068;-48
2023/06/04 08:34:56;;;;;;;6.40;4.10;;;19.20;41.50;;;20.45;35.96;97762.88;5060295;28;20049;-48
2023/06/04 08:37:24;;;;;;;4.07;2.58;;;19.30;42.00;;;20.48;35.91;97770.56;5063506;28;20044;-46
2023/06/04 08:39:52;;;;;;;5.35;2.72;;;19.30;41.70;;;20.52;35.72;97768.25;5062894;28;20041;-47
2023/06/04 08:42:31;;;;;;;3.75;2.38;;;19.40;41.40;;;20.54;35.70;97761.56;5059298;28;20045;-46
2023/06/04 08:44:58;;;;;;;2.83;2.38;;;19.40;40.80;;;20.56;35.55;97762.16;5059505;28;20503;-45
2023/06/04 08:47:28;;;;;;;4.15;2.47;;;19.40;41.40;;;20.60;35.78;97765.28;5063090;28;20044;-46
2023/06/04 08:50:02;;;;;;;3.08;2.75;;;19.50;41.50;;;20.67;35.74;97770.66;5061195;28;20056;-48
2023/06/04 08:52:30;;;;;;;3.42;2.53;;;19.50;41.10;;;20.75;35.60;97773.88;5059827;28;20064;-47
2023/06/04 08:54:58;;;;;;;4.60;3.08;;;19.60;41.10;;;20.79;35.25;97774.28;5059727;28;20424;-48
2023/06/04 08:57:26;;;;;;;6.20;2.60;;;19.70;41.00;;;20.82;35.19;97766.53;5062695;28;20056;-47
2023/06/04 08:59:54;;;;;;;3.75;2.20;;;19.70;41.00;;;20.87;35.19;97760.44;5062646;28;20055;-49
2023/06/04 09:02:21;;;;;;;5.07;2.72;;;19.80;40.90;;;20.92;34.94;97762.47;5059849;28;20104;-48
2023/06/04 09:04:49;;;;;;;4.70;2.70;;;19.80;40.60;;;20.97;34.83;97760.75;5058289;28;20060;-48
2023/06/04 09:07:17;;;;;;;3.58;2.90;;;19.80;40.20;;;20.99;34.85;97766.75;5051585;28;20069;-48
2023/06/04 09:09:47;;;;;;;4.25;2.70;;;19.90;40.20;;;21.04;35.10;97769.63;5058167;28;20049;-50
2023/06/04 09:12:30;;;;;;;5.57;2.80;;;20.00;40.00;;;21.12;35.03;97768.50;5051971;28;20420;-47
2023/06/04 09:15:00;;;;;;;4.95;2.33;;;20.00;40.40;;;21.18;35.11;97778.41;5058759;28;20059;-46
2023/06/04 09:17:28;;;;;;;5.20;2.17;;;20.10;40.60;;;21.27;34.82;97778.94;5062921;28;20037;-46
2023/06/04 09:19:56;;;;;;;3.67;2.78;;;20.10;40.30;;;21.34;34.75;97768.03;5060439;28;20048;-47
2023/06/04 09:22:37;;;;;;;3.38;2.50;;;20.20;39.70;;;21.40;34.54;97769.81;5057967;28;20041;-46
2023/06/04 09:25:18;;;;;;;4.85;2.55;;;20.30;40.20;;;21.48;34.99;97774.97;5060290;28;20056;-50
2023/06/04 09:27:46;;;;;;;3.58;2.60;;;20.40;40.30;;;21.62;34.62;97778.34;5057966;28;20053;-45
2023/06/04 09:30:13;;;;;;;4.20;2.72;;;20.50;39.50;;;21.70;34.07;97775.31;5059152;28;20044;-46
2023/06/04 09:32:41;;;;;;;5.38;2.58;;;20.60;39.20;;;21.77;33.76;97784.19;5058278;28;20540;-47
2023/06/04 09:35:20;;;;;;;4.40;2.50;;;20.70;39.00;;;21.82;33.33;97776.16;5058851;28;20053;-46
2023/06/04 09:37:56;;;;;;;3.80;2.20;;;20.70;38.40;;;21.89;33.98;97780.66;5059411;28;20492;-46
2023/06/04 09:40:34;;;;;;;6.03;2.72;;;20.80;38.20;;;21.95;33.76;97772.44;5048529;28;20044;-49
2023/06/04 09:43:02;;;;;;;5.60;2.72;;;20.90;38.40;;;21.99;33.10;97772.81;5056919;28;20048;-48
2023/06/04 09:45:32;;;;;;;5.07;2.90;;;20.90;38.10;;;22.04;33.27;97772.94;5059492;28;20055;-46
2023/06/04 09:48:01;;;;;;;5.03;3.50;;;21.00;38.20;;;22.11;33.21;97767.41;5060856;28;20063;-49
2023/06/04 09:50:34;;;;;;;5.43;2.80;;;21.00;37.60;;;22.17;32.74;97769.19;5058027;28;20411;-48
2023/06/04 09:53:12;;;;;;;4.80;2.80;;;21.10;36.80;;;22.22;33.04;97767.44;5058939;28;20416;-49
2023/06/04 09:55:39;;;;;;;5.40;2.80;;;21.20;37.60;;;22.30;32.49;97771.72;5060982;28;20048;-46
2023/06/04 09:58:10;;;;;;;5.82;4.40;;;21.20;37.20;;;22.35;33.08;97779.16;5059969;28;20052;-48
2023/06/04 10:00:38;;;;;;;5.05;3.03;;;21.30;37.60;;;22.41;32.44;97776.34;5057787;28;20029;-48
2023/06/04 10:03:08;;;;;;;3.75;2.47;;;21.40;37.20;;;22.45;32.48;97773.16;5059020;28;20049;-50
2023/06/04 10:05:36;;;;;;;4.25;2.60;;;21.30;37.00;;;22.51;32.00;97764.09;5059483;28;20032;-47
2023/06/04 10:08:05;;;;;;;2.67;2.45;;;21.40;36.70;;;22.55;31.43;97765.28;5060189;28;20049;-49
2023/06/04 10:10:37;;;;;;;5.43;4.60;;;21.50;35.80;;;22.56;31.86;97770.44;5043522;28;20052;-48
2023/06/04 10:13:16;;;;;;;5.78;3.13;;;21.50;35.90;;;22.64;31.73;97771.16;5060172;28;20041;-47
2023/06/04 10:15:46;;;;;;;5.30;2.90;;;21.60;35.90;;;22.72;31.24;97763.50;5057122;28;20401;-46
2023/06/04 10:18:15;;;;;;;6.00;3.08;;;21.60;35.60;;;22.78;31.24;97767.97;5058966;28;20037;-47
2023/06/04 10:20:43;;;;;;;7.50;4.22;;;21.70;35.50;;;22.85;31.06;97765.13;5062207;28;20047;-47
2023/06/04 10:23:12;;;;;;;6.93;3.40;;;21.80;35.50;;;22.93;30.92;97772.09;5060125;28;20044;-46
2023/06/04 10:25:40;;;;;;;5.38;4.18;;;21.80;34.90;;;22.94;30.59;97747.44;5055599;28;20056;-46
2023/06/04 10:28:08;;;;;;;4.00;2.90;;;21.90;34.80;;;23.02;30.82;97762.53;5058812;28;20376;-50
2023/06/04 10:30:36;;;;;;;5.70;3.55;;;21.90;35.10;;;23.11;30.98;97758.41;5061404;28;20044;-47